createdAt,value
2022-10-07T00:00:58.726Z,14.61
2022-10-07T00:03:27.059Z,14.57
2022-10-07T00:06:00.152Z,14.54
2022-10-07T00:08:26.627Z,14.51
2022-10-07T00:10:53.112Z,14.48
2022-10-07T00:13:19.608Z,14.43
2022-10-07T00:15:46.144Z,14.39
2022-10-07T00:18:12.592Z,14.37
2022-10-07T00:20:39.814Z,14.36
2022-10-07T00:23:07.883Z,14.32
2022-10-07T00:25:37.873Z,14.30
2022-10-07T00:28:05.043Z,14.29
2022-10-07T00:30:31.692Z,14.27
2022-10-07T00:32:58.313Z,14.26
2022-10-07T00:35:25.867Z,14.29
2022-10-07T00:37:52.400Z,14.30
2022-10-07T00:40:18.892Z,14.31
2022-10-07T00:42:46.820Z,14.32
2022-10-07T00:45:16.723Z,14.27
2022-10-07T00:47:49.261Z,14.23
2022-10-07T00:50:23.699Z,14.17
2022-10-07T00:52:55.308Z,14.16
2022-10-07T00:55:26.208Z,14.14
2022-10-07T00:57:57.288Z,14.12
2022-10-07T01:00:24.117Z,14.12
2022-10-07T01:02:51.753Z,14.14
2022-10-07T01:05:19.234Z,14.13
2022-10-07T01:07:48.467Z,14.12
2022-10-07T01:10:19.914Z,14.10
2022-10-07T01:13:09.265Z,14.10
2022-10-07T01:15:44.495Z,14.11
2022-10-07T01:18:21.512Z,14.09
2022-10-07T01:20:57.855Z,14.08
2022-10-07T01:23:28.157Z,14.07
2022-10-07T01:26:14.145Z,14.05
2022-10-07T01:28:44.526Z,14.06
2022-10-07T01:31:16.872Z,14.06
2022-10-07T01:33:50.706Z,14.06
2022-10-07T01:36:21.616Z,14.05
2022-10-07T01:38:53.453Z,14.07
2022-10-07T01:41:24.459Z,14.06
2022-10-07T01:43:54.151Z,14.05
2022-10-07T01:46:26.441Z,14.04
2022-10-07T01:48:56.257Z,14.05
2022-10-07T01:51:27.131Z,14.03
2022-10-07T01:54:21.693Z,13.98
2022-10-07T01:57:07.695Z,13.92
2022-10-07T02:00:01.231Z,13.86
2022-10-07T02:03:17.790Z,13.83
2022-10-07T02:05:58.392Z,13.82
2022-10-07T02:08:24.956Z,13.80
2022-10-07T02:11:04.438Z,13.78
2022-10-07T02:13:38.644Z,13.76
2022-10-07T02:16:21.875Z,13.73
2022-10-07T02:18:53.542Z,13.71
2022-10-07T02:21:26.784Z,13.70
2022-10-07T02:23:59.679Z,13.69
2022-10-07T02:26:29.417Z,13.68
2022-10-07T02:29:01.623Z,13.68
2022-10-07T02:31:32.573Z,13.68
2022-10-07T02:34:08.010Z,13.68
2022-10-07T02:36:40.946Z,13.70
2022-10-07T02:39:07.995Z,13.73
2022-10-07T02:41:58.663Z,13.71
2022-10-07T02:44:56.052Z,13.67
2022-10-07T02:47:35.694Z,13.66
2022-10-07T02:50:07.404Z,13.64
2022-10-07T02:52:35.025Z,13.62
2022-10-07T02:55:09.497Z,13.64
2022-10-07T02:57:51.961Z,13.63
2022-10-07T03:00:19.757Z,13.66
2022-10-07T03:03:02.560Z,13.65
2022-10-07T03:05:54.504Z,13.68
2022-10-07T03:08:23.227Z,13.67
2022-10-07T03:10:50.809Z,13.67
2022-10-07T03:13:18.041Z,13.64
2022-10-07T03:15:52.038Z,13.60
2022-10-07T03:18:26.638Z,13.55
2022-10-07T03:21:00.886Z,13.55
2022-10-07T03:23:29.203Z,13.54
2022-10-07T03:26:00.945Z,13.51
2022-10-07T03:28:30.028Z,13.49
2022-10-07T03:31:07.615Z,13.45
2022-10-07T03:33:37.399Z,13.45
2022-10-07T03:36:05.987Z,13.43
2022-10-07T03:38:33.612Z,13.40
2022-10-07T03:41:01.926Z,13.40
2022-10-07T03:43:28.815Z,13.39
2022-10-07T03:45:56.895Z,13.39
2022-10-07T03:48:23.394Z,13.40
2022-10-07T03:50:57.201Z,13.39
2022-10-07T03:53:29.467Z,13.38
2022-10-07T03:55:57.746Z,13.35
2022-10-07T03:58:24.454Z,13.34
2022-10-07T04:00:51.667Z,13.35
2022-10-07T04:03:18.694Z,13.36
2022-10-07T04:05:59.638Z,13.34
2022-10-07T04:08:29.051Z,13.33
2022-10-07T04:10:59.649Z,13.31
2022-10-07T04:13:27.102Z,13.32
2022-10-07T04:15:54.682Z,13.34
2022-10-07T04:18:22.563Z,13.33
2022-10-07T04:20:51.390Z,13.31
2022-10-07T04:23:17.926Z,13.26
2022-10-07T04:25:46.767Z,13.22
2022-10-07T04:28:23.229Z,13.20
2022-10-07T04:30:55.148Z,13.20
2022-10-07T04:33:27.393Z,13.15
2022-10-07T04:35:55.857Z,13.12
2022-10-07T04:38:27.585Z,13.10
2022-10-07T04:40:55.736Z,13.09
2022-10-07T04:43:23.563Z,13.10
2022-10-07T04:46:09.169Z,13.11
2022-10-07T04:48:43.859Z,13.13
2022-10-07T04:51:10.639Z,13.14
2022-10-07T04:53:39.492Z,13.12
2022-10-07T04:56:12.074Z,13.10
2022-10-07T04:58:38.629Z,13.06
2022-10-07T05:01:09.349Z,13.03
2022-10-07T05:03:41.029Z,13.01
2022-10-07T05:06:23.993Z,12.98
2022-10-07T05:08:52.997Z,12.97
2022-10-07T05:11:20.591Z,12.97
2022-10-07T05:14:02.234Z,12.97
2022-10-07T05:16:31.294Z,12.97
2022-10-07T05:18:58.568Z,13.00
2022-10-07T05:21:25.097Z,13.02
2022-10-07T05:23:58.062Z,13.05
2022-10-07T05:26:29.974Z,13.06
2022-10-07T05:28:59.434Z,13.07
2022-10-07T05:31:33.357Z,13.09
2022-10-07T05:34:06.041Z,13.11
2022-10-07T05:36:32.958Z,13.15
2022-10-07T05:39:01.115Z,13.17
2022-10-07T05:41:45.394Z,13.15
2022-10-07T05:44:18.661Z,13.15
2022-10-07T05:46:46.918Z,13.14
2022-10-07T05:49:15.630Z,13.13
2022-10-07T05:51:42.263Z,13.12
2022-10-07T05:54:13.742Z,13.10
2022-10-07T05:56:42.838Z,13.09
2022-10-07T05:59:10.401Z,13.05
2022-10-07T06:01:38.783Z,13.04
2022-10-07T06:04:14.287Z,13.05
2022-10-07T06:06:44.043Z,13.04
2022-10-07T06:09:30.688Z,13.04
2022-10-07T06:12:18.194Z,13.06
2022-10-07T06:14:50.508Z,13.05
2022-10-07T06:17:17.067Z,13.06
2022-10-07T06:19:45.462Z,13.07
2022-10-07T06:22:11.978Z,13.07
2022-10-07T06:24:43.812Z,13.06
2022-10-07T06:27:10.855Z,13.04
2022-10-07T06:29:38.742Z,13.04
2022-10-07T06:32:05.877Z,13.03
2022-10-07T06:34:33.125Z,13.02
2022-10-07T06:36:59.924Z,13.03
2022-10-07T06:39:26.978Z,13.06
2022-10-07T06:41:54.584Z,13.11
2022-10-07T06:44:34.937Z,13.16
2022-10-07T06:47:01.625Z,13.18
2022-10-07T06:49:28.199Z,13.21
2022-10-07T06:51:54.682Z,13.26
2022-10-07T06:54:25.542Z,13.31
2022-10-07T06:56:52.238Z,13.37
2022-10-07T06:59:18.715Z,13.45
2022-10-07T07:01:52.939Z,13.55
2022-10-07T07:04:27.363Z,13.68
2022-10-07T07:06:54.619Z,13.81
2022-10-07T07:09:22.767Z,13.96
2022-10-07T07:11:54.251Z,14.10
2022-10-07T07:14:35.643Z,14.27
2022-10-07T07:17:14.635Z,14.48
2022-10-07T07:19:43.844Z,14.68
2022-10-07T07:22:11.933Z,14.84
2022-10-07T07:24:40.275Z,15.01
2022-10-07T07:27:07.926Z,15.19
2022-10-07T07:29:35.318Z,15.36
2022-10-07T07:32:04.289Z,15.48
2022-10-07T07:34:37.994Z,15.61
2022-10-07T07:37:05.963Z,15.73
2022-10-07T07:39:37.543Z,15.82
2022-10-07T07:42:10.086Z,15.96
2022-10-07T07:44:38.890Z,16.09
2022-10-07T07:47:09.253Z,16.21
2022-10-07T07:49:36.544Z,16.32
2022-10-07T07:52:04.300Z,16.41
2022-10-07T07:54:41.825Z,16.52
2022-10-07T07:57:08.694Z,16.66
2022-10-07T07:59:37.315Z,16.78
2022-10-07T08:02:05.703Z,16.96
2022-10-07T08:04:36.231Z,17.08
2022-10-07T08:07:03.451Z,17.18
2022-10-07T08:09:30.087Z,17.31
2022-10-07T08:11:57.622Z,17.47
2022-10-07T08:14:24.291Z,17.60
2022-10-07T08:16:55.518Z,17.73
2022-10-07T08:19:22.008Z,17.80
2022-10-07T08:21:48.853Z,17.92
2022-10-07T08:24:25.706Z,18.08
2022-10-07T08:26:53.615Z,18.25
2022-10-07T08:29:21.157Z,18.37
2022-10-07T08:31:49.211Z,18.47
2022-10-07T08:34:17.156Z,18.59
2022-10-07T08:36:47.648Z,18.74
2022-10-07T08:39:15.041Z,18.85
2022-10-07T08:42:05.519Z,18.93
2022-10-07T08:44:41.518Z,18.99
2022-10-07T08:47:34.578Z,19.06
2022-10-07T08:50:19.693Z,19.22
2022-10-07T08:53:11.607Z,19.34
2022-10-07T08:55:45.865Z,19.46
2022-10-07T08:58:30.936Z,19.56
2022-10-07T09:01:12.726Z,19.64
2022-10-07T09:04:15.222Z,19.74
2022-10-07T09:06:55.847Z,19.89
2022-10-07T09:09:28.253Z,20.02
2022-10-07T09:11:56.218Z,20.13
2022-10-07T09:14:38.150Z,20.20
2022-10-07T09:17:15.494Z,20.21
2022-10-07T09:19:46.760Z,20.26
2022-10-07T09:22:21.718Z,20.30
2022-10-07T09:25:09.023Z,20.41
2022-10-07T09:27:37.766Z,20.50
2022-10-07T09:30:06.401Z,20.53
2022-10-07T09:32:35.478Z,20.55
2022-10-07T09:35:06.901Z,20.61
2022-10-07T09:37:34.201Z,20.69
2022-10-07T09:40:23.236Z,20.78
2022-10-07T09:42:50.594Z,20.90
2022-10-07T09:45:23.863Z,20.98
2022-10-07T09:47:55.881Z,21.05
2022-10-07T09:50:38.988Z,21.13
2022-10-07T09:53:18.279Z,21.24
2022-10-07T09:55:45.333Z,21.34
2022-10-07T09:58:29.235Z,21.33
2022-10-07T10:00:57.919Z,21.37
2022-10-07T10:03:35.716Z,21.41
2022-10-07T10:06:09.642Z,21.47
2022-10-07T10:08:43.099Z,21.54
2022-10-07T10:11:25.691Z,21.62
2022-10-07T10:13:56.368Z,21.72
2022-10-07T10:16:26.065Z,21.81
2022-10-07T10:19:02.361Z,21.94
2022-10-07T10:21:32.541Z,22.08
2022-10-07T10:24:10.387Z,22.16
2022-10-07T10:26:48.738Z,22.20
2022-10-07T10:29:40.074Z,22.25
2022-10-07T10:32:37.246Z,22.35
2022-10-07T10:35:36.815Z,22.54
2022-10-07T10:38:26.211Z,22.65
2022-10-07T10:41:11.505Z,22.70
2022-10-07T10:44:01.551Z,22.76
2022-10-07T10:46:39.357Z,22.78
2022-10-07T10:49:36.478Z,22.81
2022-10-07T10:52:25.843Z,22.88
2022-10-07T10:55:08.259Z,22.95
2022-10-07T10:58:16.393Z,23.04
2022-10-07T11:01:00.141Z,23.20
2022-10-07T11:03:55.061Z,23.30
2022-10-07T11:06:22.418Z,23.42
2022-10-07T11:08:52.663Z,23.50
2022-10-07T11:11:21.784Z,23.59
2022-10-07T11:14:12.147Z,23.63
2022-10-07T11:16:44.781Z,23.73
2022-10-07T11:19:23.816Z,23.77
2022-10-07T11:21:52.723Z,23.85
2022-10-07T11:24:44.111Z,23.91
2022-10-07T11:27:25.991Z,23.97
2022-10-07T11:30:10.082Z,24.01
2022-10-07T11:33:08.216Z,24.07
2022-10-07T11:35:43.881Z,24.15
2022-10-07T11:38:10.295Z,24.21
2022-10-07T11:40:45.541Z,24.29
2022-10-07T11:43:47.625Z,24.35
2022-10-07T11:46:33.671Z,24.41
2022-10-07T11:49:14.827Z,24.54
2022-10-07T11:52:02.838Z,24.62
2022-10-07T11:54:42.328Z,24.68
2022-10-07T11:57:20.810Z,24.77
2022-10-07T11:59:58.032Z,24.82
2022-10-07T12:02:30.736Z,24.89
2022-10-07T12:05:01.339Z,24.92
2022-10-07T12:07:40.583Z,24.84
2022-10-07T12:10:20.105Z,24.84
2022-10-07T12:12:49.105Z,24.80
2022-10-07T12:15:40.479Z,24.80
2022-10-07T12:18:10.384Z,24.82
2022-10-07T12:20:50.169Z,24.82
2022-10-07T12:23:19.734Z,24.81
2022-10-07T12:25:48.225Z,24.81
2022-10-07T12:28:36.681Z,24.80
2022-10-07T12:31:16.288Z,24.84
2022-10-07T12:34:04.215Z,24.85
2022-10-07T12:36:31.511Z,24.89
2022-10-07T12:39:01.899Z,24.90
2022-10-07T12:41:34.442Z,24.91
2022-10-07T12:44:20.080Z,24.90
2022-10-07T12:46:51.174Z,24.90
2022-10-07T12:49:17.628Z,24.91
2022-10-07T12:51:45.156Z,24.97
2022-10-07T12:54:20.439Z,25.04
2022-10-07T12:56:48.246Z,25.09
2022-10-07T12:59:33.360Z,25.15
2022-10-07T13:02:31.450Z,25.20
2022-10-07T13:05:27.381Z,25.24
2022-10-07T13:08:36.094Z,25.26
2022-10-07T13:11:44.306Z,25.28
2022-10-07T13:14:23.907Z,25.27
2022-10-07T13:17:25.193Z,25.31
2022-10-07T13:20:06.629Z,25.41
2022-10-07T13:22:33.455Z,25.44
2022-10-07T13:25:07.568Z,25.44
2022-10-07T13:27:35.234Z,25.44
2022-10-07T13:30:05.974Z,25.48
2022-10-07T13:32:34.499Z,25.52
2022-10-07T13:35:30.226Z,25.55
2022-10-07T13:37:56.900Z,25.59
2022-10-07T13:40:35.434Z,25.62
2022-10-07T13:43:06.892Z,25.63
2022-10-07T13:45:43.544Z,25.62
2022-10-07T13:48:25.939Z,25.69
2022-10-07T13:50:56.914Z,25.75
2022-10-07T13:53:28.412Z,25.72
2022-10-07T13:56:20.561Z,25.69
2022-10-07T13:58:47.652Z,25.65
2022-10-07T14:01:15.627Z,25.67
2022-10-07T14:04:16.806Z,25.64
2022-10-07T14:06:43.671Z,25.69
2022-10-07T14:09:21.488Z,25.73
2022-10-07T14:11:54.008Z,25.73
2022-10-07T14:14:33.486Z,25.77
2022-10-07T14:17:00.498Z,25.84
2022-10-07T14:19:32.702Z,25.79
2022-10-07T14:22:04.405Z,25.75
2022-10-07T14:24:32.836Z,25.73
2022-10-07T14:27:00.592Z,25.73
2022-10-07T14:29:30.933Z,25.66
2022-10-07T14:32:39.774Z,25.62
2022-10-07T14:35:19.717Z,25.65
2022-10-07T14:37:47.362Z,25.64
2022-10-07T14:40:23.245Z,25.61
2022-10-07T14:42:53.769Z,25.57
2022-10-07T14:45:22.426Z,25.50
2022-10-07T14:47:49.687Z,25.39
2022-10-07T14:50:19.444Z,25.24
2022-10-07T14:52:51.859Z,25.13
2022-10-07T14:55:23.186Z,25.03
2022-10-07T14:57:50.037Z,24.91
2022-10-07T15:00:20.107Z,24.77
2022-10-07T15:02:48.023Z,24.66
2022-10-07T15:05:16.745Z,24.62
2022-10-07T15:07:43.821Z,24.58
2022-10-07T15:10:23.119Z,24.48
2022-10-07T15:12:50.099Z,24.34
2022-10-07T15:15:18.621Z,24.27
2022-10-07T15:17:45.550Z,24.22
2022-10-07T15:20:15.040Z,24.14
2022-10-07T15:22:42.519Z,24.07
2022-10-07T15:25:15.214Z,23.95
2022-10-07T15:27:42.282Z,23.87
2022-10-07T15:30:09.628Z,23.81
2022-10-07T15:32:36.196Z,23.72
2022-10-07T15:35:03.855Z,23.64
2022-10-07T15:37:32.252Z,23.55
2022-10-07T15:39:58.872Z,23.50
2022-10-07T15:42:26.122Z,23.41
2022-10-07T15:44:55.767Z,23.33
2022-10-07T15:47:22.290Z,23.24
2022-10-07T15:49:49.491Z,23.17
2022-10-07T15:52:16.538Z,23.14
2022-10-07T15:54:46.432Z,23.07
2022-10-07T15:57:14.175Z,22.99
2022-10-07T15:59:40.878Z,22.89
2022-10-07T16:02:14.828Z,22.78
2022-10-07T16:04:42.853Z,22.72
2022-10-07T16:07:11.993Z,22.67
2022-10-07T16:09:38.942Z,22.61
2022-10-07T16:12:06.333Z,22.57
2022-10-07T16:14:37.073Z,22.48
2022-10-07T16:17:04.141Z,22.39
2022-10-07T16:19:30.634Z,22.33
2022-10-07T16:21:57.154Z,22.27
2022-10-07T16:24:24.806Z,22.20
2022-10-07T16:26:51.380Z,22.13
2022-10-07T16:29:40.670Z,22.07
2022-10-07T16:32:10.513Z,22.01
2022-10-07T16:34:43.403Z,21.95
2022-10-07T16:37:11.131Z,21.88
2022-10-07T16:39:37.830Z,21.81
2022-10-07T16:42:04.391Z,21.73
2022-10-07T16:44:32.876Z,21.65
2022-10-07T16:47:00.219Z,21.55
2022-10-07T16:49:29.240Z,21.48
2022-10-07T16:51:56.656Z,21.38
2022-10-07T16:54:29.997Z,21.31
2022-10-07T16:56:58.562Z,21.22
2022-10-07T16:59:25.853Z,21.14
2022-10-07T17:01:55.571Z,21.05
2022-10-07T17:04:26.602Z,20.96
2022-10-07T17:06:53.660Z,20.87
2022-10-07T17:09:21.777Z,20.81
2022-10-07T17:11:48.267Z,20.72
2022-10-07T17:14:20.805Z,20.63
2022-10-07T17:16:49.789Z,20.53
2022-10-07T17:19:18.519Z,20.43
2022-10-07T17:21:48.077Z,20.36
2022-10-07T17:24:20.450Z,20.27
2022-10-07T17:26:47.656Z,20.21
2022-10-07T17:29:18.284Z,20.13
2022-10-07T17:31:48.242Z,20.07
2022-10-07T17:34:20.818Z,20.00
2022-10-07T17:36:48.248Z,19.93
2022-10-07T17:39:15.213Z,19.89
2022-10-07T17:41:41.748Z,19.80
2022-10-07T17:44:12.631Z,19.75
2022-10-07T17:46:40.348Z,19.69
2022-10-07T17:49:09.582Z,19.63
2022-10-07T17:51:37.399Z,19.58
2022-10-07T17:54:07.103Z,19.49
2022-10-07T17:56:34.513Z,19.44
2022-10-07T17:59:02.132Z,19.39
2022-10-07T18:01:31.778Z,19.32
2022-10-07T18:04:02.359Z,19.27
2022-10-07T18:06:31.430Z,19.20
2022-10-07T18:09:03.311Z,19.14
2022-10-07T18:11:48.886Z,19.10
2022-10-07T18:14:34.598Z,19.02
2022-10-07T18:17:01.162Z,18.94
2022-10-07T18:19:29.359Z,18.92
2022-10-07T18:21:56.428Z,18.87
2022-10-07T18:24:28.702Z,18.81
2022-10-07T18:26:58.880Z,18.79
2022-10-07T18:29:26.735Z,18.76
2022-10-07T18:31:53.357Z,18.74
2022-10-07T18:34:23.208Z,18.72
2022-10-07T18:36:53.789Z,18.70
2022-10-07T18:39:22.615Z,18.66
2022-10-07T18:41:49.149Z,18.63
2022-10-07T18:44:18.912Z,18.59
2022-10-07T18:46:45.543Z,18.56
2022-10-07T18:49:14.890Z,18.51
2022-10-07T18:51:41.565Z,18.48
2022-10-07T18:54:10.474Z,18.44
2022-10-07T18:56:40.897Z,18.40
2022-10-07T18:59:08.155Z,18.37
2022-10-07T19:01:34.935Z,18.33
2022-10-07T19:04:10.941Z,18.28
2022-10-07T19:06:40.169Z,18.25
2022-10-07T19:09:08.937Z,18.22
2022-10-07T19:11:35.850Z,18.20
2022-10-07T19:14:06.658Z,18.17
2022-10-07T19:16:36.638Z,18.14
2022-10-07T19:19:09.782Z,18.12
2022-10-07T19:21:36.365Z,18.08
2022-10-07T19:24:04.904Z,18.03
2022-10-07T19:26:38.532Z,17.98
2022-10-07T19:29:06.412Z,17.95
2022-10-07T19:31:35.989Z,17.94
2022-10-07T19:34:27.183Z,17.91
2022-10-07T19:36:55.029Z,17.90
2022-10-07T19:39:23.569Z,17.87
2022-10-07T19:41:51.039Z,17.85
2022-10-07T19:44:19.675Z,17.84
2022-10-07T19:46:50.143Z,17.84
2022-10-07T19:49:16.711Z,17.83
2022-10-07T19:51:45.461Z,17.81
2022-10-07T19:54:13.356Z,17.78
2022-10-07T19:56:40.601Z,17.78
2022-10-07T19:59:12.242Z,17.79
2022-10-07T20:01:43.968Z,17.83
2022-10-07T20:04:18.524Z,17.87
2022-10-07T20:06:45.427Z,17.89
2022-10-07T20:09:15.431Z,17.87
2022-10-07T20:11:42.343Z,17.91
2022-10-07T20:14:13.506Z,17.90
2022-10-07T20:16:40.163Z,17.89
2022-10-07T20:19:10.992Z,17.90
2022-10-07T20:21:38.152Z,17.91
2022-10-07T20:24:08.487Z,17.94
2022-10-07T20:26:37.706Z,17.96
2022-10-07T20:29:06.146Z,17.99
2022-10-07T20:31:35.600Z,17.98
2022-10-07T20:34:03.423Z,17.97
2022-10-07T20:36:36.269Z,17.97
2022-10-07T20:39:24.939Z,17.98
2022-10-07T20:42:11.830Z,17.98
2022-10-07T20:44:39.035Z,17.97
2022-10-07T20:47:07.637Z,17.93
2022-10-07T20:49:35.163Z,17.90
2022-10-07T20:52:07.000Z,17.86
2022-10-07T20:54:36.695Z,17.83
2022-10-07T20:57:03.989Z,17.81
2022-10-07T20:59:31.206Z,17.73
2022-10-07T21:01:58.738Z,17.70
2022-10-07T21:04:29.716Z,17.68
2022-10-07T21:06:56.815Z,17.67
2022-10-07T21:09:24.145Z,17.66
2022-10-07T21:11:51.498Z,17.65
2022-10-07T21:14:23.318Z,17.65
2022-10-07T21:16:50.000Z,17.65
2022-10-07T21:19:17.085Z,17.64
2022-10-07T21:21:44.177Z,17.63
2022-10-07T21:24:12.594Z,17.63
2022-10-07T21:26:39.098Z,17.61
2022-10-07T21:29:08.116Z,17.59
2022-10-07T21:31:35.675Z,17.58
2022-10-07T21:34:07.905Z,17.58
2022-10-07T21:36:37.037Z,17.57
2022-10-07T21:39:04.246Z,17.56
2022-10-07T21:41:34.306Z,17.55
2022-10-07T21:44:11.563Z,17.52
2022-10-07T21:46:39.970Z,17.52
2022-10-07T21:49:07.705Z,17.52
2022-10-07T21:51:34.673Z,17.48
2022-10-07T21:54:06.088Z,17.45
2022-10-07T21:56:34.039Z,17.43
2022-10-07T21:59:01.474Z,17.37
2022-10-07T22:01:28.830Z,17.35
2022-10-07T22:04:01.871Z,17.31
2022-10-07T22:06:50.601Z,17.28
2022-10-07T22:09:20.266Z,17.27
2022-10-07T22:11:47.013Z,17.26
2022-10-07T22:14:15.722Z,17.25
2022-10-07T22:16:42.333Z,17.28
2022-10-07T22:19:10.713Z,17.29
2022-10-07T22:21:40.155Z,17.28
2022-10-07T22:24:09.046Z,17.27
2022-10-07T22:26:41.934Z,17.24
2022-10-07T22:29:09.941Z,17.21
2022-10-07T22:31:37.344Z,17.16
2022-10-07T22:34:06.323Z,17.12
2022-10-07T22:36:33.436Z,17.12
2022-10-07T22:39:00.175Z,17.11
2022-10-07T22:41:27.527Z,17.10
2022-10-07T22:43:59.447Z,17.06
2022-10-07T22:46:28.236Z,17.03
2022-10-07T22:48:58.482Z,16.98
2022-10-07T22:51:29.186Z,16.95
2022-10-07T22:53:59.344Z,16.91
2022-10-07T22:56:28.058Z,16.91
2022-10-07T22:59:00.244Z,16.91
2022-10-07T23:01:29.486Z,16.92
2022-10-07T23:03:58.762Z,16.91
2022-10-07T23:06:25.398Z,16.90
2022-10-07T23:08:52.028Z,16.91
2022-10-07T23:11:24.093Z,16.93
2022-10-07T23:13:55.567Z,16.96
2022-10-07T23:16:24.769Z,16.97
2022-10-07T23:18:53.591Z,17.00
2022-10-07T23:21:23.695Z,17.02
2022-10-07T23:23:56.598Z,17.03
2022-10-07T23:26:26.183Z,17.05
2022-10-07T23:28:54.436Z,17.07
2022-10-07T23:31:22.661Z,17.09
2022-10-07T23:33:52.101Z,17.11
2022-10-07T23:36:20.692Z,17.12
2022-10-07T23:38:49.137Z,17.14
2022-10-07T23:41:18.476Z,17.17
2022-10-07T23:43:51.547Z,17.17
2022-10-07T23:46:19.722Z,17.19
2022-10-07T23:48:47.174Z,17.22
2022-10-07T23:51:20.526Z,17.24
2022-10-07T23:53:51.506Z,17.27
2022-10-07T23:56:19.051Z,17.28
2022-10-07T23:58:45.766Z,17.27
